sensor_id;sensor_type;location;lat;lon;timestamp;P1;durP1;ratioP1;P2;durP2;ratioP2
4462;SDS011;2244;50.200;8.220;2023-04-24T00:02:15;8.90;;;2.20;;
4462;SDS011;2244;50.200;8.220;2023-04-24T00:04:43;17.23;;;2.60;;
4462;SDS011;2244;50.200;8.220;2023-04-24T00:07:13;9.40;;;2.60;;
4462;SDS011;2244;50.200;8.220;2023-04-24T00:09:43;9.93;;;3.10;;
4462;SDS011;2244;50.200;8.220;2023-04-24T00:12:11;11.43;;;3.43;;
4462;SDS011;2244;50.200;8.220;2023-04-24T00:14:38;9.03;;;2.40;;
4462;SDS011;2244;50.200;8.220;2023-04-24T00:17:05;9.33;;;2.83;;
4462;SDS011;2244;50.200;8.220;2023-04-24T00:19:33;11.80;;;2.50;;
4462;SDS011;2244;50.200;8.220;2023-04-24T00:22:01;10.40;;;2.70;;
4462;SDS011;2244;50.200;8.220;2023-04-24T00:24:29;12.17;;;3.00;;
4462;SDS011;2244;50.200;8.220;2023-04-24T00:26:56;9.97;;;2.87;;
4462;SDS011;2244;50.200;8.220;2023-04-24T00:29:24;9.30;;;3.03;;
4462;SDS011;2244;50.200;8.220;2023-04-24T00:31:51;11.30;;;3.60;;
4462;SDS011;2244;50.200;8.220;2023-04-24T00:34:19;10.00;;;3.23;;
4462;SDS011;2244;50.200;8.220;2023-04-24T00:36:46;10.83;;;3.10;;
4462;SDS011;2244;50.200;8.220;2023-04-24T00:39:15;9.33;;;3.10;;
4462;SDS011;2244;50.200;8.220;2023-04-24T00:41:42;9.20;;;3.30;;
4462;SDS011;2244;50.200;8.220;2023-04-24T00:44:10;13.50;;;3.57;;
4462;SDS011;2244;50.200;8.220;2023-04-24T00:46:37;10.07;;;3.07;;
4462;SDS011;2244;50.200;8.220;2023-04-24T00:49:05;9.80;;;3.80;;
4462;SDS011;2244;50.200;8.220;2023-04-24T00:51:32;11.07;;;3.70;;
4462;SDS011;2244;50.200;8.220;2023-04-24T00:54:01;9.90;;;3.77;;
4462;SDS011;2244;50.200;8.220;2023-04-24T00:56:32;10.37;;;3.00;;
4462;SDS011;2244;50.200;8.220;2023-04-24T00:58:59;10.07;;;3.30;;
4462;SDS011;2244;50.200;8.220;2023-04-24T01:01:31;9.10;;;3.30;;
4462;SDS011;2244;50.200;8.220;2023-04-24T01:03:59;11.53;;;3.77;;
4462;SDS011;2244;50.200;8.220;2023-04-24T01:06:29;10.53;;;3.60;;
4462;SDS011;2244;50.200;8.220;2023-04-24T01:08:59;9.63;;;3.20;;
4462;SDS011;2244;50.200;8.220;2023-04-24T01:11:30;9.80;;;3.40;;
4462;SDS011;2244;50.200;8.220;2023-04-24T01:13:57;10.70;;;3.40;;
4462;SDS011;2244;50.200;8.220;2023-04-24T01:16:25;12.53;;;3.57;;
4462;SDS011;2244;50.200;8.220;2023-04-24T01:18:52;10.23;;;3.30;;
4462;SDS011;2244;50.200;8.220;2023-04-24T01:21:20;10.70;;;3.10;;
4462;SDS011;2244;50.200;8.220;2023-04-24T01:23:48;13.03;;;2.77;;
4462;SDS011;2244;50.200;8.220;2023-04-24T01:26:16;9.80;;;3.20;;
4462;SDS011;2244;50.200;8.220;2023-04-24T01:28:46;12.37;;;3.13;;
4462;SDS011;2244;50.200;8.220;2023-04-24T01:31:14;14.23;;;3.10;;
4462;SDS011;2244;50.200;8.220;2023-04-24T01:33:42;12.53;;;3.90;;
4462;SDS011;2244;50.200;8.220;2023-04-24T01:36:10;10.80;;;3.47;;
4462;SDS011;2244;50.200;8.220;2023-04-24T01:38:38;10.67;;;3.00;;
4462;SDS011;2244;50.200;8.220;2023-04-24T01:41:10;11.67;;;3.30;;
4462;SDS011;2244;50.200;8.220;2023-04-24T01:43:37;13.60;;;3.20;;
4462;SDS011;2244;50.200;8.220;2023-04-24T01:46:04;9.13;;;3.10;;
4462;SDS011;2244;50.200;8.220;2023-04-24T01:48:33;10.20;;;2.70;;
4462;SDS011;2244;50.200;8.220;2023-04-24T01:51:00;9.23;;;2.50;;
4462;SDS011;2244;50.200;8.220;2023-04-24T01:53:32;12.70;;;3.10;;
4462;SDS011;2244;50.200;8.220;2023-04-24T01:56:00;9.80;;;2.33;;
4462;SDS011;2244;50.200;8.220;2023-04-24T01:58:27;9.80;;;2.00;;
4462;SDS011;2244;50.200;8.220;2023-04-24T02:00:58;9.30;;;1.80;;
4462;SDS011;2244;50.200;8.220;2023-04-24T02:03:26;8.70;;;1.80;;
4462;SDS011;2244;50.200;8.220;2023-04-24T02:05:54;8.80;;;2.17;;
4462;SDS011;2244;50.200;8.220;2023-04-24T02:08:21;11.87;;;1.80;;
4462;SDS011;2244;50.200;8.220;2023-04-24T02:10:48;8.53;;;1.83;;
4462;SDS011;2244;50.200;8.220;2023-04-24T02:13:17;7.43;;;1.33;;
4462;SDS011;2244;50.200;8.220;2023-04-24T02:15:44;9.00;;;1.80;;
4462;SDS011;2244;50.200;8.220;2023-04-24T02:18:11;7.80;;;1.50;;
4462;SDS011;2244;50.200;8.220;2023-04-24T02:20:39;8.00;;;1.47;;
4462;SDS011;2244;50.200;8.220;2023-04-24T02:23:06;9.27;;;1.90;;
4462;SDS011;2244;50.200;8.220;2023-04-24T02:25:34;9.23;;;1.53;;
4462;SDS011;2244;50.200;8.220;2023-04-24T02:28:01;10.30;;;1.70;;
4462;SDS011;2244;50.200;8.220;2023-04-24T02:30:29;8.07;;;2.00;;
4462;SDS011;2244;50.200;8.220;2023-04-24T02:32:57;7.97;;;1.57;;
4462;SDS011;2244;50.200;8.220;2023-04-24T02:35:24;10.03;;;2.13;;
4462;SDS011;2244;50.200;8.220;2023-04-24T02:37:52;8.73;;;1.80;;
4462;SDS011;2244;50.200;8.220;2023-04-24T02:40:19;8.50;;;1.73;;
4462;SDS011;2244;50.200;8.220;2023-04-24T02:42:47;10.90;;;1.60;;
4462;SDS011;2244;50.200;8.220;2023-04-24T02:45:14;8.67;;;1.73;;
4462;SDS011;2244;50.200;8.220;2023-04-24T02:47:42;7.90;;;2.00;;
4462;SDS011;2244;50.200;8.220;2023-04-24T02:50:09;7.73;;;1.97;;
4462;SDS011;2244;50.200;8.220;2023-04-24T02:52:37;7.63;;;1.80;;
4462;SDS011;2244;50.200;8.220;2023-04-24T02:55:04;9.13;;;2.20;;
4462;SDS011;2244;50.200;8.220;2023-04-24T02:57:32;8.43;;;2.00;;
4462;SDS011;2244;50.200;8.220;2023-04-24T02:59:59;8.10;;;1.80;;
4462;SDS011;2244;50.200;8.220;2023-04-24T03:02:32;8.77;;;2.20;;
4462;SDS011;2244;50.200;8.220;2023-04-24T03:05:00;10.47;;;2.27;;
4462;SDS011;2244;50.200;8.220;2023-04-24T03:07:28;8.00;;;2.23;;
4462;SDS011;2244;50.200;8.220;2023-04-24T03:09:57;8.57;;;2.30;;
4462;SDS011;2244;50.200;8.220;2023-04-24T03:12:25;8.50;;;2.13;;
4462;SDS011;2244;50.200;8.220;2023-04-24T03:14:52;8.13;;;2.20;;
4462;SDS011;2244;50.200;8.220;2023-04-24T03:17:19;8.40;;;2.10;;
4462;SDS011;2244;50.200;8.220;2023-04-24T03:19:47;9.30;;;2.17;;
4462;SDS011;2244;50.200;8.220;2023-04-24T03:22:14;8.77;;;2.07;;
4462;SDS011;2244;50.200;8.220;2023-04-24T03:24:42;9.20;;;2.13;;
4462;SDS011;2244;50.200;8.220;2023-04-24T03:27:09;8.40;;;2.10;;
4462;SDS011;2244;50.200;8.220;2023-04-24T03:29:36;8.90;;;2.33;;
4462;SDS011;2244;50.200;8.220;2023-04-24T03:32:04;8.27;;;2.40;;
4462;SDS011;2244;50.200;8.220;2023-04-24T03:34:31;9.80;;;2.60;;
4462;SDS011;2244;50.200;8.220;2023-04-24T03:36:59;9.50;;;2.40;;
4462;SDS011;2244;50.200;8.220;2023-04-24T03:39:32;9.30;;;2.43;;
4462;SDS011;2244;50.200;8.220;2023-04-24T03:41:59;9.63;;;2.70;;
4462;SDS011;2244;50.200;8.220;2023-04-24T03:44:37;8.60;;;2.47;;
4462;SDS011;2244;50.200;8.220;2023-04-24T03:47:08;11.67;;;2.50;;
4462;SDS011;2244;50.200;8.220;2023-04-24T03:49:36;8.20;;;2.00;;
4462;SDS011;2244;50.200;8.220;2023-04-24T03:52:03;8.10;;;2.23;;
4462;SDS011;2244;50.200;8.220;2023-04-24T03:54:31;12.33;;;3.30;;
4462;SDS011;2244;50.200;8.220;2023-04-24T03:56:58;9.03;;;2.40;;
4462;SDS011;2244;50.200;8.220;2023-04-24T03:59:26;9.70;;;2.90;;
4462;SDS011;2244;50.200;8.220;2023-04-24T04:01:53;11.57;;;2.40;;
4462;SDS011;2244;50.200;8.220;2023-04-24T04:04:21;8.23;;;2.20;;
4462;SDS011;2244;50.200;8.220;2023-04-24T04:06:49;8.97;;;2.57;;
4462;SDS011;2244;50.200;8.220;2023-04-24T04:09:16;10.53;;;2.60;;
4462;SDS011;2244;50.200;8.220;2023-04-24T04:11:43;7.97;;;2.20;;
4462;SDS011;2244;50.200;8.220;2023-04-24T04:14:11;8.50;;;2.50;;
4462;SDS011;2244;50.200;8.220;2023-04-24T04:16:39;8.30;;;2.30;;
4462;SDS011;2244;50.200;8.220;2023-04-24T04:19:06;8.30;;;2.60;;
4462;SDS011;2244;50.200;8.220;2023-04-24T04:21:33;8.10;;;2.40;;
4462;SDS011;2244;50.200;8.220;2023-04-24T04:24:01;10.60;;;2.70;;
4462;SDS011;2244;50.200;8.220;2023-04-24T04:26:28;8.70;;;2.60;;
4462;SDS011;2244;50.200;8.220;2023-04-24T04:28:58;8.63;;;2.40;;
4462;SDS011;2244;50.200;8.220;2023-04-24T04:31:27;10.30;;;2.43;;
4462;SDS011;2244;50.200;8.220;2023-04-24T04:33:54;10.90;;;2.67;;
4462;SDS011;2244;50.200;8.220;2023-04-24T04:36:21;9.00;;;2.60;;
4462;SDS011;2244;50.200;8.220;2023-04-24T04:38:50;10.63;;;2.70;;
4462;SDS011;2244;50.200;8.220;2023-04-24T04:41:17;11.43;;;2.70;;
4462;SDS011;2244;50.200;8.220;2023-04-24T04:43:45;8.57;;;2.57;;
4462;SDS011;2244;50.200;8.220;2023-04-24T04:46:14;9.20;;;2.50;;
4462;SDS011;2244;50.200;8.220;2023-04-24T04:48:44;9.60;;;2.43;;
4462;SDS011;2244;50.200;8.220;2023-04-24T04:51:12;10.77;;;2.67;;
4462;SDS011;2244;50.200;8.220;2023-04-24T04:53:39;8.80;;;2.70;;
4462;SDS011;2244;50.200;8.220;2023-04-24T04:56:06;9.60;;;3.53;;
4462;SDS011;2244;50.200;8.220;2023-04-24T04:58:34;8.63;;;2.63;;
4462;SDS011;2244;50.200;8.220;2023-04-24T05:01:02;9.63;;;2.93;;
4462;SDS011;2244;50.200;8.220;2023-04-24T05:03:35;9.43;;;2.77;;
4462;SDS011;2244;50.200;8.220;2023-04-24T05:06:03;9.07;;;2.90;;
4462;SDS011;2244;50.200;8.220;2023-04-24T05:08:34;9.07;;;2.67;;
4462;SDS011;2244;50.200;8.220;2023-04-24T05:13:35;11.63;;;3.20;;
4462;SDS011;2244;50.200;8.220;2023-04-24T05:16:04;9.50;;;2.83;;
4462;SDS011;2244;50.200;8.220;2023-04-24T05:18:31;8.60;;;2.67;;
4462;SDS011;2244;50.200;8.220;2023-04-24T05:20:59;9.03;;;3.20;;
4462;SDS011;2244;50.200;8.220;2023-04-24T05:23:26;8.60;;;2.70;;
4462;SDS011;2244;50.200;8.220;2023-04-24T05:25:54;11.30;;;3.27;;
4462;SDS011;2244;50.200;8.220;2023-04-24T05:28:21;8.90;;;2.97;;
4462;SDS011;2244;50.200;8.220;2023-04-24T05:30:49;13.87;;;3.07;;
4462;SDS011;2244;50.200;8.220;2023-04-24T05:33:16;9.30;;;3.17;;
4462;SDS011;2244;50.200;8.220;2023-04-24T05:35:44;10.63;;;3.40;;
4462;SDS011;2244;50.200;8.220;2023-04-24T05:38:13;10.90;;;3.47;;
4462;SDS011;2244;50.200;8.220;2023-04-24T05:40:40;10.57;;;3.70;;
4462;SDS011;2244;50.200;8.220;2023-04-24T05:43:08;10.00;;;3.97;;
4462;SDS011;2244;50.200;8.220;2023-04-24T05:45:35;13.77;;;4.27;;
4462;SDS011;2244;50.200;8.220;2023-04-24T05:48:03;12.80;;;4.30;;
4462;SDS011;2244;50.200;8.220;2023-04-24T05:50:36;11.60;;;4.90;;
4462;SDS011;2244;50.200;8.220;2023-04-24T05:53:03;10.37;;;4.40;;
4462;SDS011;2244;50.200;8.220;2023-04-24T05:55:32;10.87;;;4.40;;
4462;SDS011;2244;50.200;8.220;2023-04-24T05:58:00;11.17;;;4.83;;
4462;SDS011;2244;50.200;8.220;2023-04-24T06:00:32;12.70;;;5.70;;
4462;SDS011;2244;50.200;8.220;2023-04-24T06:03:00;11.47;;;5.57;;
4462;SDS011;2244;50.200;8.220;2023-04-24T06:05:31;14.07;;;5.90;;
4462;SDS011;2244;50.200;8.220;2023-04-24T06:07:59;14.60;;;5.97;;
4462;SDS011;2244;50.200;8.220;2023-04-24T06:10:26;12.60;;;6.20;;
4462;SDS011;2244;50.200;8.220;2023-04-24T06:12:54;13.80;;;6.30;;
4462;SDS011;2244;50.200;8.220;2023-04-24T06:15:23;13.00;;;5.60;;
4462;SDS011;2244;50.200;8.220;2023-04-24T06:17:50;12.10;;;5.73;;
4462;SDS011;2244;50.200;8.220;2023-04-24T06:20:17;12.60;;;5.67;;
4462;SDS011;2244;50.200;8.220;2023-04-24T06:22:45;13.80;;;5.57;;
4462;SDS011;2244;50.200;8.220;2023-04-24T06:25:12;12.83;;;5.80;;
4462;SDS011;2244;50.200;8.220;2023-04-24T06:27:40;12.07;;;6.10;;
4462;SDS011;2244;50.200;8.220;2023-04-24T06:30:08;13.23;;;5.53;;
4462;SDS011;2244;50.200;8.220;2023-04-24T06:32:36;11.50;;;5.90;;
4462;SDS011;2244;50.200;8.220;2023-04-24T06:35:03;12.30;;;6.07;;
4462;SDS011;2244;50.200;8.220;2023-04-24T06:37:31;11.07;;;5.47;;
4462;SDS011;2244;50.200;8.220;2023-04-24T06:39:58;12.47;;;5.00;;
4462;SDS011;2244;50.200;8.220;2023-04-24T06:42:33;13.23;;;6.20;;
4462;SDS011;2244;50.200;8.220;2023-04-24T06:45:01;11.67;;;5.10;;
4462;SDS011;2244;50.200;8.220;2023-04-24T06:47:34;13.10;;;4.93;;
4462;SDS011;2244;50.200;8.220;2023-04-24T06:50:02;11.77;;;5.17;;
4462;SDS011;2244;50.200;8.220;2023-04-24T06:52:31;10.80;;;4.77;;
4462;SDS011;2244;50.200;8.220;2023-04-24T06:55:02;11.53;;;4.30;;
4462;SDS011;2244;50.200;8.220;2023-04-24T06:57:33;13.73;;;5.20;;
4462;SDS011;2244;50.200;8.220;2023-04-24T07:00:00;10.90;;;4.90;;
4462;SDS011;2244;50.200;8.220;2023-04-24T07:02:34;11.40;;;4.37;;
4462;SDS011;2244;50.200;8.220;2023-04-24T07:05:01;12.77;;;4.33;;
4462;SDS011;2244;50.200;8.220;2023-04-24T07:07:35;10.70;;;3.87;;
4462;SDS011;2244;50.200;8.220;2023-04-24T07:10:04;12.10;;;3.93;;
4462;SDS011;2244;50.200;8.220;2023-04-24T07:12:32;10.10;;;3.90;;
4462;SDS011;2244;50.200;8.220;2023-04-24T07:15:00;12.10;;;4.70;;
4462;SDS011;2244;50.200;8.220;2023-04-24T07:17:33;9.90;;;3.87;;
4462;SDS011;2244;50.200;8.220;2023-04-24T07:20:01;12.07;;;4.13;;
4462;SDS011;2244;50.200;8.220;2023-04-24T07:22:29;9.40;;;3.70;;
4462;SDS011;2244;50.200;8.220;2023-04-24T07:24:57;12.47;;;4.50;;
4462;SDS011;2244;50.200;8.220;2023-04-24T07:27:24;9.50;;;3.70;;
4462;SDS011;2244;50.200;8.220;2023-04-24T07:29:52;9.73;;;3.80;;
4462;SDS011;2244;50.200;8.220;2023-04-24T07:32:19;10.77;;;4.40;;
4462;SDS011;2244;50.200;8.220;2023-04-24T07:34:46;10.27;;;4.33;;
4462;SDS011;2244;50.200;8.220;2023-04-24T07:37:14;10.00;;;3.23;;
4462;SDS011;2244;50.200;8.220;2023-04-24T07:39:41;9.67;;;3.60;;
4462;SDS011;2244;50.200;8.220;2023-04-24T07:42:09;12.00;;;3.90;;
4462;SDS011;2244;50.200;8.220;2023-04-24T07:44:36;10.17;;;4.57;;
4462;SDS011;2244;50.200;8.220;2023-04-24T07:47:04;10.17;;;4.00;;
4462;SDS011;2244;50.200;8.220;2023-04-24T07:49:31;10.40;;;3.97;;
4462;SDS011;2244;50.200;8.220;2023-04-24T07:52:00;10.90;;;4.10;;
4462;SDS011;2244;50.200;8.220;2023-04-24T07:54:29;11.10;;;4.33;;
4462;SDS011;2244;50.200;8.220;2023-04-24T07:56:56;11.07;;;4.57;;
4462;SDS011;2244;50.200;8.220;2023-04-24T07:59:23;10.30;;;3.63;;
4462;SDS011;2244;50.200;8.220;2023-04-24T08:01:51;9.60;;;3.50;;
4462;SDS011;2244;50.200;8.220;2023-04-24T08:04:20;10.13;;;3.63;;
4462;SDS011;2244;50.200;8.220;2023-04-24T08:06:48;9.90;;;4.07;;
4462;SDS011;2244;50.200;8.220;2023-04-24T08:09:15;10.30;;;3.97;;
4462;SDS011;2244;50.200;8.220;2023-04-24T08:11:43;8.93;;;3.20;;
4462;SDS011;2244;50.200;8.220;2023-04-24T08:14:10;10.97;;;3.00;;
4462;SDS011;2244;50.200;8.220;2023-04-24T08:16:39;9.80;;;3.20;;
4462;SDS011;2244;50.200;8.220;2023-04-24T08:19:07;9.83;;;3.77;;
4462;SDS011;2244;50.200;8.220;2023-04-24T08:21:34;8.80;;;3.10;;
4462;SDS011;2244;50.200;8.220;2023-04-24T08:24:02;9.73;;;3.33;;
4462;SDS011;2244;50.200;8.220;2023-04-24T08:26:32;11.00;;;3.57;;
4462;SDS011;2244;50.200;8.220;2023-04-24T08:28:59;9.87;;;3.57;;
4462;SDS011;2244;50.200;8.220;2023-04-24T08:31:32;8.47;;;2.80;;
4462;SDS011;2244;50.200;8.220;2023-04-24T08:34:00;10.10;;;3.63;;
4462;SDS011;2244;50.200;8.220;2023-04-24T08:36:27;11.07;;;3.13;;
4462;SDS011;2244;50.200;8.220;2023-04-24T08:38:56;12.73;;;3.53;;
4462;SDS011;2244;50.200;8.220;2023-04-24T08:41:24;11.87;;;4.07;;
4462;SDS011;2244;50.200;8.220;2023-04-24T08:43:52;13.10;;;3.20;;
4462;SDS011;2244;50.200;8.220;2023-04-24T08:46:21;11.20;;;3.30;;
4462;SDS011;2244;50.200;8.220;2023-04-24T08:48:49;9.50;;;2.97;;
4462;SDS011;2244;50.200;8.220;2023-04-24T08:51:17;8.80;;;2.70;;
4462;SDS011;2244;50.200;8.220;2023-04-24T08:53:45;9.13;;;2.80;;
4462;SDS011;2244;50.200;8.220;2023-04-24T08:56:13;8.50;;;2.43;;
4462;SDS011;2244;50.200;8.220;2023-04-24T08:58:40;8.30;;;2.40;;
4462;SDS011;2244;50.200;8.220;2023-04-24T09:01:08;8.90;;;2.90;;
4462;SDS011;2244;50.200;8.220;2023-04-24T09:03:36;8.20;;;2.43;;
4462;SDS011;2244;50.200;8.220;2023-04-24T09:06:04;7.90;;;2.13;;
4462;SDS011;2244;50.200;8.220;2023-04-24T09:08:33;8.00;;;2.30;;
4462;SDS011;2244;50.200;8.220;2023-04-24T09:11:00;8.20;;;2.50;;
4462;SDS011;2244;50.200;8.220;2023-04-24T09:13:35;10.33;;;2.30;;
4462;SDS011;2244;50.200;8.220;2023-04-24T09:16:03;8.67;;;2.43;;
4462;SDS011;2244;50.200;8.220;2023-04-24T09:18:36;9.27;;;2.53;;
4462;SDS011;2244;50.200;8.220;2023-04-24T09:21:04;7.87;;;2.30;;
4462;SDS011;2244;50.200;8.220;2023-04-24T09:23:32;9.17;;;2.73;;
4462;SDS011;2244;50.200;8.220;2023-04-24T09:26:00;10.83;;;2.40;;
4462;SDS011;2244;50.200;8.220;2023-04-24T09:28:37;8.17;;;2.40;;
4462;SDS011;2244;50.200;8.220;2023-04-24T09:31:06;7.90;;;2.00;;
4462;SDS011;2244;50.200;8.220;2023-04-24T09:33:34;10.67;;;2.97;;
4462;SDS011;2244;50.200;8.220;2023-04-24T09:36:02;9.13;;;2.30;;
4462;SDS011;2244;50.200;8.220;2023-04-24T09:38:33;8.77;;;2.53;;
4462;SDS011;2244;50.200;8.220;2023-04-24T09:41:06;11.30;;;2.53;;
4462;SDS011;2244;50.200;8.220;2023-04-24T09:43:34;8.00;;;2.10;;
4462;SDS011;2244;50.200;8.220;2023-04-24T09:46:06;8.07;;;2.37;;
4462;SDS011;2244;50.200;8.220;2023-04-24T09:48:39;8.00;;;2.07;;
4462;SDS011;2244;50.200;8.220;2023-04-24T09:51:04;12.37;;;2.30;;
4462;SDS011;2244;50.200;8.220;2023-04-24T09:53:33;7.60;;;1.90;;
4462;SDS011;2244;50.200;8.220;2023-04-24T09:56:07;8.17;;;2.63;;
4462;SDS011;2244;50.200;8.220;2023-04-24T09:58:36;10.13;;;2.40;;
4462;SDS011;2244;50.200;8.220;2023-04-24T10:01:04;8.07;;;2.27;;
4462;SDS011;2244;50.200;8.220;2023-04-24T10:03:35;8.60;;;2.20;;
4462;SDS011;2244;50.200;8.220;2023-04-24T10:06:02;8.27;;;2.47;;
4462;SDS011;2244;50.200;8.220;2023-04-24T10:08:36;8.30;;;2.00;;
4462;SDS011;2244;50.200;8.220;2023-04-24T10:11:04;7.13;;;1.57;;
4462;SDS011;2244;50.200;8.220;2023-04-24T10:13:33;9.67;;;1.47;;
4462;SDS011;2244;50.200;8.220;2023-04-24T10:16:01;7.53;;;1.70;;
4462;SDS011;2244;50.200;8.220;2023-04-24T10:18:35;7.50;;;1.80;;
4462;SDS011;2244;50.200;8.220;2023-04-24T10:21:03;7.53;;;1.80;;
4462;SDS011;2244;50.200;8.220;2023-04-24T10:23:33;7.40;;;1.73;;
4462;SDS011;2244;50.200;8.220;2023-04-24T10:26:01;7.13;;;1.50;;
4462;SDS011;2244;50.200;8.220;2023-04-24T10:28:36;7.20;;;1.57;;
4462;SDS011;2244;50.200;8.220;2023-04-24T10:31:03;7.87;;;1.80;;
4462;SDS011;2244;50.200;8.220;2023-04-24T10:33:31;8.03;;;2.17;;
4462;SDS011;2244;50.200;8.220;2023-04-24T10:35:59;8.13;;;2.10;;
4462;SDS011;2244;50.200;8.220;2023-04-24T10:38:31;7.93;;;2.17;;
4462;SDS011;2244;50.200;8.220;2023-04-24T10:41:09;8.67;;;2.30;;
4462;SDS011;2244;50.200;8.220;2023-04-24T10:43:34;8.00;;;2.10;;
4462;SDS011;2244;50.200;8.220;2023-04-24T10:46:03;8.00;;;2.13;;
4462;SDS011;2244;50.200;8.220;2023-04-24T10:48:31;7.57;;;1.77;;
4462;SDS011;2244;50.200;8.220;2023-04-24T10:50:58;8.40;;;2.03;;
4462;SDS011;2244;50.200;8.220;2023-04-24T10:53:29;7.60;;;1.93;;
4462;SDS011;2244;50.200;8.220;2023-04-24T10:55:58;7.77;;;2.00;;
4462;SDS011;2244;50.200;8.220;2023-04-24T10:58:36;9.00;;;2.00;;
4462;SDS011;2244;50.200;8.220;2023-04-24T11:01:04;8.30;;;2.20;;
4462;SDS011;2244;50.200;8.220;2023-04-24T11:03:34;10.73;;;2.50;;
4462;SDS011;2244;50.200;8.220;2023-04-24T11:06:07;9.33;;;2.30;;
4462;SDS011;2244;50.200;8.220;2023-04-24T11:08:38;10.03;;;2.40;;
4462;SDS011;2244;50.200;8.220;2023-04-24T11:11:12;8.60;;;2.40;;
4462;SDS011;2244;50.200;8.220;2023-04-24T11:16:27;10.20;;;2.37;;
4462;SDS011;2244;50.200;8.220;2023-04-24T11:19:00;10.23;;;2.70;;
4462;SDS011;2244;50.200;8.220;2023-04-24T11:21:45;9.10;;;2.87;;
4462;SDS011;2244;50.200;8.220;2023-04-24T11:24:22;10.63;;;3.17;;
4462;SDS011;2244;50.200;8.220;2023-04-24T11:29:40;9.20;;;3.07;;
4462;SDS011;2244;50.200;8.220;2023-04-24T11:34:53;9.40;;;3.60;;
4462;SDS011;2244;50.200;8.220;2023-04-24T11:37:21;9.40;;;3.30;;
4462;SDS011;2244;50.200;8.220;2023-04-24T11:39:50;8.90;;;3.20;;
4462;SDS011;2244;50.200;8.220;2023-04-24T11:42:18;9.27;;;3.60;;
4462;SDS011;2244;50.200;8.220;2023-04-24T11:44:47;9.20;;;3.80;;
4462;SDS011;2244;50.200;8.220;2023-04-24T11:47:14;10.40;;;3.60;;
4462;SDS011;2244;50.200;8.220;2023-04-24T11:49:42;11.90;;;3.70;;
4462;SDS011;2244;50.200;8.220;2023-04-24T11:52:09;11.43;;;3.80;;
4462;SDS011;2244;50.200;8.220;2023-04-24T11:54:37;13.50;;;3.57;;
4462;SDS011;2244;50.200;8.220;2023-04-24T11:57:05;11.40;;;3.93;;
4462;SDS011;2244;50.200;8.220;2023-04-24T11:59:36;9.57;;;3.73;;
4462;SDS011;2244;50.200;8.220;2023-04-24T12:02:04;9.83;;;3.83;;
4462;SDS011;2244;50.200;8.220;2023-04-24T12:04:39;10.03;;;3.60;;
4462;SDS011;2244;50.200;8.220;2023-04-24T12:07:08;11.47;;;3.90;;
4462;SDS011;2244;50.200;8.220;2023-04-24T12:09:54;9.83;;;4.00;;
4462;SDS011;2244;50.200;8.220;2023-04-24T12:12:15;9.90;;;4.33;;
4462;SDS011;2244;50.200;8.220;2023-04-24T12:14:48;11.33;;;4.20;;
4462;SDS011;2244;50.200;8.220;2023-04-24T12:17:12;10.97;;;4.47;;
4462;SDS011;2244;50.200;8.220;2023-04-24T12:19:44;11.10;;;4.20;;
4462;SDS011;2244;50.200;8.220;2023-04-24T12:22:08;12.00;;;4.50;;
4462;SDS011;2244;50.200;8.220;2023-04-24T12:24:54;10.30;;;3.97;;
4462;SDS011;2244;50.200;8.220;2023-04-24T12:27:04;16.27;;;5.27;;
4462;SDS011;2244;50.200;8.220;2023-04-24T12:29:32;14.57;;;5.50;;
4462;SDS011;2244;50.200;8.220;2023-04-24T12:31:59;11.03;;;4.27;;
4462;SDS011;2244;50.200;8.220;2023-04-24T12:34:27;11.50;;;4.70;;
4462;SDS011;2244;50.200;8.220;2023-04-24T12:36:54;12.27;;;5.10;;
4462;SDS011;2244;50.200;8.220;2023-04-24T12:39:22;11.10;;;4.87;;
4462;SDS011;2244;50.200;8.220;2023-04-24T12:41:54;13.67;;;5.50;;
4462;SDS011;2244;50.200;8.220;2023-04-24T12:44:20;12.53;;;5.10;;
4462;SDS011;2244;50.200;8.220;2023-04-24T12:46:47;11.73;;;5.13;;
4462;SDS011;2244;50.200;8.220;2023-04-24T12:49:14;11.00;;;4.70;;
4462;SDS011;2244;50.200;8.220;2023-04-24T12:51:42;12.93;;;5.00;;
4462;SDS011;2244;50.200;8.220;2023-04-24T12:54:09;13.60;;;4.63;;
4462;SDS011;2244;50.200;8.220;2023-04-24T12:56:38;14.47;;;4.80;;
4462;SDS011;2244;50.200;8.220;2023-04-24T12:59:05;13.53;;;4.87;;
4462;SDS011;2244;50.200;8.220;2023-04-24T13:01:33;13.03;;;4.57;;
4462;SDS011;2244;50.200;8.220;2023-04-24T13:04:01;16.03;;;5.27;;
4462;SDS011;2244;50.200;8.220;2023-04-24T13:06:31;12.00;;;5.00;;
4462;SDS011;2244;50.200;8.220;2023-04-24T13:08:59;11.53;;;5.17;;
4462;SDS011;2244;50.200;8.220;2023-04-24T13:11:26;11.10;;;4.63;;
4462;SDS011;2244;50.200;8.220;2023-04-24T13:13:55;11.50;;;4.10;;
4462;SDS011;2244;50.200;8.220;2023-04-24T13:16:22;12.87;;;4.97;;
4462;SDS011;2244;50.200;8.220;2023-04-24T13:18:50;14.27;;;6.03;;
4462;SDS011;2244;50.200;8.220;2023-04-24T13:21:17;12.90;;;5.27;;
4462;SDS011;2244;50.200;8.220;2023-04-24T13:23:44;13.37;;;6.20;;
4462;SDS011;2244;50.200;8.220;2023-04-24T13:26:12;12.30;;;4.90;;
4462;SDS011;2244;50.200;8.220;2023-04-24T13:28:39;14.10;;;6.17;;
4462;SDS011;2244;50.200;8.220;2023-04-24T13:31:07;14.20;;;5.93;;
4462;SDS011;2244;50.200;8.220;2023-04-24T13:33:35;15.77;;;6.20;;
4462;SDS011;2244;50.200;8.220;2023-04-24T13:36:02;13.53;;;5.03;;
4462;SDS011;2244;50.200;8.220;2023-04-24T13:38:32;12.77;;;5.30;;
4462;SDS011;2244;50.200;8.220;2023-04-24T13:40:59;12.40;;;5.60;;
4462;SDS011;2244;50.200;8.220;2023-04-24T13:43:33;12.97;;;5.20;;
4462;SDS011;2244;50.200;8.220;2023-04-24T13:46:00;15.40;;;5.30;;
4462;SDS011;2244;50.200;8.220;2023-04-24T13:48:31;12.67;;;5.07;;
4462;SDS011;2244;50.200;8.220;2023-04-24T13:50:58;11.23;;;5.00;;
4462;SDS011;2244;50.200;8.220;2023-04-24T13:53:25;14.33;;;5.93;;
4462;SDS011;2244;50.200;8.220;2023-04-24T13:55:53;10.87;;;4.80;;
4462;SDS011;2244;50.200;8.220;2023-04-24T13:58:21;11.83;;;4.87;;
4462;SDS011;2244;50.200;8.220;2023-04-24T14:00:48;12.43;;;4.53;;
4462;SDS011;2244;50.200;8.220;2023-04-24T14:03:15;12.93;;;5.03;;
4462;SDS011;2244;50.200;8.220;2023-04-24T14:05:43;11.87;;;5.20;;
4462;SDS011;2244;50.200;8.220;2023-04-24T14:08:11;11.50;;;4.97;;
4462;SDS011;2244;50.200;8.220;2023-04-24T14:10:38;11.43;;;4.83;;
4462;SDS011;2244;50.200;8.220;2023-04-24T14:13:06;11.80;;;5.00;;
4462;SDS011;2244;50.200;8.220;2023-04-24T14:15:35;11.80;;;4.70;;
4462;SDS011;2244;50.200;8.220;2023-04-24T14:18:03;12.73;;;4.87;;
4462;SDS011;2244;50.200;8.220;2023-04-24T14:20:32;13.13;;;4.60;;
4462;SDS011;2244;50.200;8.220;2023-04-24T14:22:59;14.93;;;4.80;;
4462;SDS011;2244;50.200;8.220;2023-04-24T14:25:26;10.50;;;4.10;;
4462;SDS011;2244;50.200;8.220;2023-04-24T14:27:54;11.73;;;4.60;;
4462;SDS011;2244;50.200;8.220;2023-04-24T14:30:22;12.13;;;4.60;;
4462;SDS011;2244;50.200;8.220;2023-04-24T14:32:49;12.17;;;4.43;;
4462;SDS011;2244;50.200;8.220;2023-04-24T14:35:17;14.03;;;4.70;;
4462;SDS011;2244;50.200;8.220;2023-04-24T14:37:44;11.73;;;4.77;;
4462;SDS011;2244;50.200;8.220;2023-04-24T14:40:12;10.97;;;4.17;;
4462;SDS011;2244;50.200;8.220;2023-04-24T14:42:40;11.63;;;4.43;;
4462;SDS011;2244;50.200;8.220;2023-04-24T14:45:08;11.23;;;4.00;;
4462;SDS011;2244;50.200;8.220;2023-04-24T14:47:36;11.87;;;4.47;;
4462;SDS011;2244;50.200;8.220;2023-04-24T14:50:05;12.13;;;4.30;;
4462;SDS011;2244;50.200;8.220;2023-04-24T14:52:32;10.87;;;3.77;;
4462;SDS011;2244;50.200;8.220;2023-04-24T14:55:00;11.93;;;4.20;;
4462;SDS011;2244;50.200;8.220;2023-04-24T14:57:27;10.93;;;3.63;;
4462;SDS011;2244;50.200;8.220;2023-04-24T14:59:54;11.77;;;3.77;;
4462;SDS011;2244;50.200;8.220;2023-04-24T15:02:22;11.30;;;4.07;;
4462;SDS011;2244;50.200;8.220;2023-04-24T15:04:50;12.00;;;3.93;;
4462;SDS011;2244;50.200;8.220;2023-04-24T15:07:17;13.93;;;4.27;;
4462;SDS011;2244;50.200;8.220;2023-04-24T15:09:45;11.53;;;4.10;;
4462;SDS011;2244;50.200;8.220;2023-04-24T15:12:13;12.30;;;4.63;;
4462;SDS011;2244;50.200;8.220;2023-04-24T15:14:41;13.13;;;4.90;;
4462;SDS011;2244;50.200;8.220;2023-04-24T15:17:10;15.23;;;4.70;;
4462;SDS011;2244;50.200;8.220;2023-04-24T15:19:37;11.10;;;4.47;;
4462;SDS011;2244;50.200;8.220;2023-04-24T15:22:05;10.80;;;4.17;;
4462;SDS011;2244;50.200;8.220;2023-04-24T15:24:34;11.60;;;4.93;;
4462;SDS011;2244;50.200;8.220;2023-04-24T15:27:02;12.50;;;4.30;;